MUHA Airport Information

Runway Information
Runway 06 Length 13123 ft width 148 ft
Elevation 210 ft Threshold 0 ft Heading 54
Runway 24 Length 13123 ft Width 148 ft
Elevation 210 ft Threshold 0 ft Heading 234
Airport Frequencies
Type A/G Name BOYEROS RD Frequency 126.9 MHZ
Type A/G Name BOYEROS RD Frequency 288.7 MHZ
Type A/G Name BOYEROS RD Frequency 1132.1 MHZ
Type A/G Name BOYEROS RD Frequency 1329.7 MHZ
Type APP Name HABANA APP Frequency 119.35 MHZ
Type ATIS Name ATIS Frequency 132.5 MHZ
Type CLD Name CLNC DEL Frequency 121.9 MHZ
Type GND Name GND Frequency 121.9 MHZ
Type TWR Name MARTI TWR Frequency 118.1 MHZ
Airport Navaids
Type VOR-DME Name Habana Frequency 116100 KHZ
Airport Weather Information & NOTAM
ADDS - METARS form results

(1445 UTC 24 January 2020)
Data provider http://aviationweather.gov/metar/data/
 
METAR text: MUHA 241423Z 21004KT 170V230 9000 FEW030 21/17 Q1018
Conditions at: MUHA (HAVANA/JOSE MAR , CU) observed 1423 UTC 24 January 2020
Temperature: 21.0°C (70°F)
Dewpoint: 17.0°C (63°F) [RH = 78%]
Pressure (altimeter): 30.06 inches Hg (1018.0 mb)
Winds: from the SSW (210 degrees) at 5 MPH (4 knots; 2.1 m/s)
Visibility: 6 miles ( 9 km)
Ceiling: at least 12,000 feet AGL
Clouds: few clouds at 3000 feet AGL
Weather: no significant weather observed at this time

METAR text: MUHA 241355Z VRB02KT 9000 FEW030 16/16 Q1017
Conditions at: MUHA (HAVANA/JOSE MAR , CU) observed 1355 UTC 24 January 2020
Temperature: 16.0°C (61°F)
Dewpoint: 16.0°C (61°F) [RH = 100%]
Pressure (altimeter): 30.03 inches Hg (1017.0 mb)
Winds: variable direction winds at 2 MPH (2 knots; 1.0 m/s)
Visibility: 6 miles ( 9 km)
Ceiling: at least 12,000 feet AGL
Clouds: few clouds at 3000 feet AGL
Weather: no significant weather observed at this time

Forecast for: MUHA (HAVANA/JOSE MAR , CU)
Text: MUHA 241100Z 2412/2512 VRB03KT 9000 FEW030
Forecast period: 1200 to 1400 UTC 24 January 2020
Forecast type: FROM: standard forecast or significant change
Winds: variable direction winds at 3 MPH (3 knots; 1.5 m/s)
Visibility: 6 miles (9 km)
Ceiling: at least 12,000 feet AGL
Clouds: few clouds at 3000 feet AGL
Weather: no significant weather forecast for this period
Text: BECMG 2414/2416 21008KT SCT025
Forecast period: 1400 UTC 24 January 2020 to 0200 UTC 25 January 2020
Forecast type: BECOMING: Conditions expected to become as follows by 1600 UTC 24 January 2020
Winds: from the SSW (210 degrees) at 9 MPH (8 knots; 4.1 m/s)
Visibility: 6 miles (9 km)
Ceiling: at least 12,000 feet AGL
Clouds: scattered clouds at 2500 feet AGL
Weather: no significant weather forecast for this period
Text: BECMG 2502/2504 03005KT
Forecast period: 0200 to 1200 UTC 25 January 2020
Forecast type: BECOMING: Conditions expected to become as follows by 0400 UTC 25 January 2020
Winds: from the NNE (30 degrees) at 6 MPH (5 knots; 2.6 m/s)
Visibility: 6 miles (9 km)
Ceiling: at least 12,000 feet AGL
Clouds: scattered clouds at 2500 feet AGL
Weather: no significant weather forecast for this period